Time,TemperatureF,DewpointF,PressureIn,WindDirection,WindDirectionDegrees,WindSpeedMPH,WindSpeedGustMPH,Humidity,HourlyPrecipIn,Conditions,Clouds,dailyrainin,SoftwareType,DateUTC
2013-03-28 00:00:00,41.2,36.7,30.25,South,169,0.0,0.0,84,0.00,,---,0.00,VWS V14.01,2013-03-28 05:00:00,
2013-03-28 00:02:00,41.1,36.6,30.25,South,169,0.0,0.0,84,0.00,,---,0.00,VWS V14.01,2013-03-28 05:02:00,
2013-03-28 00:07:00,40.9,36.8,30.25,South,169,0.0,0.0,85,0.00,,---,0.00,VWS V14.01,2013-03-28 05:07:00,
2013-03-28 00:12:00,40.8,36.7,30.25,South,169,0.0,0.0,85,0.00,,---,0.00,VWS V14.01,2013-03-28 05:12:00,
2013-03-28 00:15:00,40.6,36.5,30.25,South,169,0.0,0.0,85,0.00,,---,0.00,VWS V14.01,2013-03-28 05:15:00,
2013-03-28 00:17:00,40.6,36.5,30.25,South,169,0.0,0.0,85,0.00,,---,0.00,VWS V14.01,2013-03-28 05:17:00,
2013-03-28 00:22:00,40.5,36.3,30.25,South,169,0.0,0.0,85,0.00,,---,0.00,VWS V14.01,2013-03-28 05:22:00,
2013-03-28 00:27:00,40.3,36.2,30.25,South,169,0.0,0.0,85,0.00,,---,0.00,VWS V14.01,2013-03-28 05:27:00,
2013-03-28 00:30:00,40.2,36.1,30.25,South,169,0.0,0.0,85,0.00,,---,0.00,VWS V14.01,2013-03-28 05:30:00,
2013-03-28 00:32:00,40.1,36.0,30.25,South,169,0.0,0.0,85,0.00,,---,0.00,VWS V14.01,2013-03-28 05:32:00,
2013-03-28 00:37:00,39.9,35.8,30.25,South,169,0.0,0.0,85,0.00,,---,0.00,VWS V14.01,2013-03-28 05:37:00,
2013-03-28 00:42:00,39.6,35.5,30.25,South,169,0.0,0.0,85,0.00,,---,0.00,VWS V14.01,2013-03-28 05:42:00,
2013-03-28 00:45:00,39.6,35.5,30.25,South,169,0.0,0.0,85,0.00,,---,0.00,VWS V14.01,2013-03-28 05:45:00,
2013-03-28 00:48:00,39.8,36.0,30.25,South,169,0.0,0.0,86,0.00,,---,0.00,VWS V14.01,2013-03-28 05:48:00,
2013-03-28 00:53:00,39.8,36.0,30.25,South,169,0.0,0.0,86,0.00,,---,0.00,VWS V14.01,2013-03-28 05:53:00,
2013-03-28 00:58:00,39.6,35.8,30.25,South,169,0.0,0.0,86,0.00,,---,0.00,VWS V14.01,2013-03-28 05:58:00,
2013-03-28 01:00:00,39.6,35.8,30.25,South,169,0.0,0.0,86,0.00,,---,0.00,VWS V14.01,2013-03-28 06:00:00,
2013-03-28 01:03:00,39.6,36.1,30.25,South,169,0.0,0.0,87,0.00,,---,0.00,VWS V14.01,2013-03-28 06:03:00,
2013-03-28 01:08:00,39.5,36.0,30.25,South,169,0.0,0.0,87,0.00,,---,0.00,VWS V14.01,2013-03-28 06:08:00,
2013-03-28 01:13:00,39.2,35.7,30.25,South,169,0.0,0.0,87,0.00,,---,0.00,VWS V14.01,2013-03-28 06:13:00,
2013-03-28 01:15:00,39.2,35.7,30.25,South,169,0.0,0.0,87,0.00,,---,0.00,VWS V14.01,2013-03-28 06:15:00,
2013-03-28 01:18:00,39.1,35.6,30.25,South,169,0.0,0.0,87,0.00,,---,0.00,VWS V14.01,2013-03-28 06:18:00,
2013-03-28 01:23:00,38.9,35.7,30.25,South,169,0.0,0.0,88,0.00,,---,0.00,VWS V14.01,2013-03-28 06:23:00,
2013-03-28 01:28:00,38.8,35.6,30.25,South,169,0.0,0.0,88,0.00,,---,0.00,VWS V14.01,2013-03-28 06:28:00,
2013-03-28 01:30:00,38.8,35.6,30.25,South,169,0.0,0.0,88,0.00,,---,0.00,VWS V14.01,2013-03-28 06:30:00,
2013-03-28 01:33:00,38.6,35.4,30.25,South,169,0.0,0.0,88,0.00,,---,0.00,VWS V14.01,2013-03-28 06:33:00,
2013-03-28 01:38:00,38.5,35.3,30.25,South,169,0.0,0.0,88,0.00,,---,0.00,VWS V14.01,2013-03-28 06:38:00,
2013-03-28 01:43:00,38.5,35.5,30.25,South,169,0.0,0.0,89,0.00,,---,0.00,VWS V14.01,2013-03-28 06:43:00,
2013-03-28 01:45:00,38.3,35.3,30.25,South,169,0.0,0.0,89,0.00,,---,0.00,VWS V14.01,2013-03-28 06:45:00,
2013-03-28 01:48:00,38.5,35.5,30.25,South,169,0.0,0.0,89,0.00,,---,0.00,VWS V14.01,2013-03-28 06:48:00,
2013-03-28 01:53:00,38.5,35.5,30.25,South,169,0.0,0.0,89,0.00,,---,0.00,VWS V14.01,2013-03-28 06:53:00,
2013-03-28 01:58:00,38.3,35.3,30.25,South,169,0.0,0.0,89,0.00,,---,0.00,VWS V14.01,2013-03-28 06:58:00,
2013-03-28 02:00:00,38.3,35.3,30.25,South,169,0.0,0.0,89,0.00,,---,0.00,VWS V14.01,2013-03-28 07:00:00,
2013-03-28 02:04:00,38.2,35.2,30.25,South,169,0.0,0.0,89,0.00,,---,0.00,VWS V14.01,2013-03-28 07:04:00,
2013-03-28 02:09:00,38.2,35.2,30.25,South,169,0.0,0.0,89,0.00,,---,0.00,VWS V14.01,2013-03-28 07:09:00,
2013-03-28 02:14:00,38.0,35.0,30.25,South,169,0.0,0.0,89,0.00,,---,0.00,VWS V14.01,2013-03-28 07:14:00,
2013-03-28 02:15:00,38.0,35.0,30.25,South,169,0.0,0.0,89,0.00,,---,0.00,VWS V14.01,2013-03-28 07:15:00,
2013-03-28 02:19:00,37.9,35.0,30.25,South,169,0.0,0.0,89,0.00,,---,0.00,VWS V14.01,2013-03-28 07:19:00,
2013-03-28 02:24:00,37.8,34.9,30.25,South,169,0.0,0.0,89,0.00,,---,0.00,VWS V14.01,2013-03-28 07:24:00,
2013-03-28 02:29:00,37.8,35.1,30.24,South,169,0.0,0.0,90,0.00,,---,0.00,VWS V14.01,2013-03-28 07:29:00,
2013-03-28 02:30:00,37.8,35.1,30.24,South,169,0.0,0.0,90,0.00,,---,0.00,VWS V14.01,2013-03-28 07:30:00,
2013-03-28 02:34:00,37.6,34.9,30.24,South,169,0.0,0.0,90,0.00,,---,0.00,VWS V14.01,2013-03-28 07:34:00,
2013-03-28 02:39:00,37.8,35.1,30.24,South,169,0.0,0.0,90,0.00,,---,0.00,VWS V14.01,2013-03-28 07:39:00,
2013-03-28 02:44:00,37.8,35.1,30.24,South,169,0.0,0.0,90,0.00,,---,0.00,VWS V14.01,2013-03-28 07:44:00,
2013-03-28 02:45:00,37.8,35.1,30.24,South,169,0.0,0.0,90,0.00,,---,0.00,VWS V14.01,2013-03-28 07:45:00,
2013-03-28 02:49:00,37.6,34.9,30.24,South,169,0.0,0.0,90,0.00,,---,0.00,VWS V14.01,2013-03-28 07:49:00,
2013-03-28 02:54:00,37.5,35.1,30.24,South,169,0.0,0.0,91,0.00,,---,0.00,VWS V14.01,2013-03-28 07:54:00,
2013-03-28 02:59:00,37.3,34.9,30.24,South,169,0.0,0.0,91,0.00,,---,0.00,VWS V14.01,2013-03-28 07:59:00,
2013-03-28 03:00:00,37.3,34.9,30.24,South,169,0.0,0.0,91,0.00,,---,0.00,VWS V14.01,2013-03-28 08:00:00,
2013-03-28 03:04:00,37.2,34.8,30.24,South,169,0.0,0.0,91,0.00,,---,0.00,VWS V14.01,2013-03-28 08:04:00,
2013-03-28 03:09:00,37.0,34.6,30.24,South,169,0.0,0.0,91,0.00,,---,0.00,VWS V14.01,2013-03-28 08:09:00,
2013-03-28 03:15:00,37.0,34.6,30.24,South,169,0.0,0.0,91,0.00,,---,0.00,VWS V14.01,2013-03-28 08:15:00,
2013-03-28 03:20:00,36.9,34.5,30.24,South,169,0.0,0.0,91,0.00,,---,0.00,VWS V14.01,2013-03-28 08:20:00,
2013-03-28 03:25:00,36.8,34.4,30.24,South,169,0.0,0.0,91,0.00,,---,0.00,VWS V14.01,2013-03-28 08:25:00,
2013-03-28 03:30:00,36.8,34.7,30.23,South,169,0.0,0.0,92,0.00,,---,0.00,VWS V14.01,2013-03-28 08:30:00,
2013-03-28 03:35:00,36.6,34.5,30.23,South,169,0.0,0.0,92,0.00,,---,0.00,VWS V14.01,2013-03-28 08:35:00,
2013-03-28 03:40:00,36.5,34.4,30.23,South,169,0.0,0.0,92,0.00,,---,0.00,VWS V14.01,2013-03-28 08:40:00,
2013-03-28 03:45:00,36.5,34.4,30.23,South,169,0.0,0.0,92,0.00,,---,0.00,VWS V14.01,2013-03-28 08:45:00,
2013-03-28 03:50:00,36.3,34.2,30.23,South,169,0.0,0.0,92,0.00,,---,0.00,VWS V14.01,2013-03-28 08:50:00,
2013-03-28 03:55:00,36.2,34.1,30.23,South,169,0.0,0.0,92,0.00,,---,0.00,VWS V14.01,2013-03-28 08:55:00,
2013-03-28 04:00:00,36.0,33.9,30.23,South,169,0.0,0.0,92,0.00,,---,0.00,VWS V14.01,2013-03-28 09:00:00,
2013-03-28 04:06:00,36.0,33.9,30.23,South,169,0.0,0.0,92,0.00,,---,0.00,VWS V14.01,2013-03-28 09:06:00,
2013-03-28 04:11:00,35.9,33.8,30.23,South,169,0.0,0.0,92,0.00,,---,0.00,VWS V14.01,2013-03-28 09:11:00,
2013-03-28 04:15:00,35.8,33.7,30.22,South,169,0.0,0.0,92,0.00,,---,0.00,VWS V14.01,2013-03-28 09:15:00,
2013-03-28 04:16:00,35.8,33.7,30.22,South,169,0.0,0.0,92,0.00,,---,0.00,VWS V14.01,2013-03-28 09:16:00,
2013-03-28 04:20:00,35.8,33.7,30.22,South,169,0.0,0.0,92,0.00,,---,0.00,VWS V14.01,2013-03-28 09:20:00,
2013-03-28 04:26:00,35.8,33.7,30.22,South,169,0.0,0.0,92,0.00,,---,0.00,VWS V14.01,2013-03-28 09:26:00,
2013-03-28 04:30:00,35.6,33.5,30.23,South,169,0.0,0.0,92,0.00,,---,0.00,VWS V14.01,2013-03-28 09:30:00,
2013-03-28 04:31:00,35.6,33.8,30.23,South,169,0.0,0.0,93,0.00,,---,0.00,VWS V14.01,2013-03-28 09:31:00,
2013-03-28 04:36:00,35.6,33.5,30.23,South,169,0.0,0.0,92,0.00,,---,0.00,VWS V14.01,2013-03-28 09:36:00,
2013-03-28 04:41:00,35.5,33.4,30.23,South,169,0.0,0.0,92,0.00,,---,0.00,VWS V14.01,2013-03-28 09:41:00,
2013-03-28 04:45:00,35.5,33.7,30.23,South,169,0.0,0.0,93,0.00,,---,0.00,VWS V14.01,2013-03-28 09:45:00,
2013-03-28 04:46:00,35.5,33.7,30.23,South,169,0.0,0.0,93,0.00,,---,0.00,VWS V14.01,2013-03-28 09:46:00,
2013-03-28 04:51:00,35.5,33.7,30.23,South,169,0.0,0.0,93,0.00,,---,0.00,VWS V14.01,2013-03-28 09:51:00,
2013-03-28 04:56:00,35.5,33.7,30.23,South,169,0.0,0.0,93,0.00,,---,0.00,VWS V14.01,2013-03-28 09:56:00,
2013-03-28 05:00:00,35.5,33.7,30.24,South,169,0.0,0.0,93,0.00,,---,0.00,VWS V14.01,2013-03-28 10:00:00,
2013-03-28 05:01:00,35.5,33.7,30.24,South,169,0.0,0.0,93,0.00,,---,0.00,VWS V14.01,2013-03-28 10:01:00,
2013-03-28 05:06:00,35.3,33.5,30.24,South,169,0.0,0.0,93,0.00,,---,0.00,VWS V14.01,2013-03-28 10:06:00,
2013-03-28 05:12:00,35.3,33.5,30.24,South,169,0.0,0.0,93,0.00,,---,0.00,VWS V14.01,2013-03-28 10:12:00,
2013-03-28 05:15:00,35.3,33.5,30.24,South,169,0.0,0.0,93,0.00,,---,0.00,VWS V14.01,2013-03-28 10:15:00,
2013-03-28 05:17:00,35.2,33.4,30.24,South,169,0.0,0.0,93,0.00,,---,0.00,VWS V14.01,2013-03-28 10:17:00,
2013-03-28 05:22:00,35.2,33.4,30.24,South,169,0.0,0.0,93,0.00,,---,0.00,VWS V14.01,2013-03-28 10:22:00,
2013-03-28 05:27:00,34.9,33.1,30.24,South,169,0.0,0.0,93,0.00,,---,0.00,VWS V14.01,2013-03-28 10:27:00,
2013-03-28 05:30:00,34.9,33.1,30.24,South,169,0.0,0.0,93,0.00,,---,0.00,VWS V14.01,2013-03-28 10:30:00,
2013-03-28 05:32:00,34.7,32.9,30.24,South,169,0.0,0.0,93,0.00,,---,0.00,VWS V14.01,2013-03-28 10:32:00,
2013-03-28 05:37:00,34.6,32.8,30.24,South,169,0.0,0.0,93,0.00,,---,0.00,VWS V14.01,2013-03-28 10:37:00,
2013-03-28 05:42:00,34.6,32.8,30.24,South,169,0.0,0.0,93,0.00,,---,0.00,VWS V14.01,2013-03-28 10:42:00,
2013-03-28 05:45:00,34.6,32.8,30.24,South,169,0.0,0.0,93,0.00,,---,0.00,VWS V14.01,2013-03-28 10:45:00,
2013-03-28 05:47:00,34.6,32.8,30.24,South,169,0.0,0.0,93,0.00,,---,0.00,VWS V14.01,2013-03-28 10:47:00,
2013-03-28 05:52:00,34.6,32.8,30.24,South,169,0.0,0.0,93,0.00,,---,0.00,VWS V14.01,2013-03-28 10:52:00,
2013-03-28 05:57:00,34.4,32.6,30.24,South,169,0.0,0.0,93,0.00,,---,0.00,VWS V14.01,2013-03-28 10:57:00,
2013-03-28 06:00:00,34.4,32.6,30.24,South,169,0.0,0.0,93,0.00,,---,0.00,VWS V14.01,2013-03-28 11:00:00,
2013-03-28 06:02:00,34.4,32.6,30.24,South,169,0.0,0.0,93,0.00,,---,0.00,VWS V14.01,2013-03-28 11:02:00,
2013-03-28 06:08:00,34.6,33.0,30.24,South,169,0.0,0.0,94,0.00,,---,0.00,VWS V14.01,2013-03-28 11:08:00,
2013-03-28 06:13:00,34.4,32.6,30.24,South,169,0.0,0.0,93,0.00,,---,0.00,VWS V14.01,2013-03-28 11:13:00,
2013-03-28 06:15:00,34.4,32.6,30.24,South,169,0.0,0.0,93,0.00,,---,0.00,VWS V14.01,2013-03-28 11:15:00,
2013-03-28 06:18:00,34.4,32.6,30.24,South,169,0.0,0.0,93,0.00,,---,0.00,VWS V14.01,2013-03-28 11:18:00,
2013-03-28 06:23:00,34.4,32.9,30.24,South,169,0.0,0.0,94,0.00,,---,0.00,VWS V14.01,2013-03-28 11:23:00,
2013-03-28 06:28:00,34.3,32.8,30.24,South,169,0.0,0.0,94,0.00,,---,0.00,VWS V14.01,2013-03-28 11:28:00,
2013-03-28 06:30:00,34.3,32.8,30.25,South,169,0.0,0.0,94,0.00,,---,0.00,VWS V14.01,2013-03-28 11:30:00,
2013-03-28 06:33:00,34.3,32.8,30.25,South,169,0.0,0.0,94,0.00,,---,0.00,VWS V14.01,2013-03-28 11:33:00,
2013-03-28 06:38:00,34.3,32.8,30.25,South,169,0.0,0.0,94,0.00,,---,0.00,VWS V14.01,2013-03-28 11:38:00,
2013-03-28 06:43:00,34.3,32.8,30.25,South,169,0.0,0.0,94,0.00,,---,0.00,VWS V14.01,2013-03-28 11:43:00,
2013-03-28 06:45:00,34.3,32.8,30.25,South,169,0.0,0.0,94,0.00,,---,0.00,VWS V14.01,2013-03-28 11:45:00,
2013-03-28 06:48:00,34.3,32.8,30.25,South,169,0.0,0.0,94,0.00,,---,0.00,VWS V14.01,2013-03-28 11:48:00,
2013-03-28 06:53:00,34.3,32.8,30.25,South,169,0.0,0.0,94,0.00,,---,0.00,VWS V14.01,2013-03-28 11:53:00,
2013-03-28 06:58:00,34.3,32.8,30.25,South,169,0.0,0.0,94,0.00,,---,0.00,VWS V14.01,2013-03-28 11:58:00,
2013-03-28 07:00:00,34.3,32.8,30.25,South,169,0.0,0.0,94,0.00,,---,0.00,VWS V14.01,2013-03-28 12:00:00,
2013-03-28 07:03:00,34.1,32.6,30.25,South,169,0.0,0.0,94,0.00,,---,0.00,VWS V14.01,2013-03-28 12:03:00,
2013-03-28 07:08:00,34.3,32.8,30.25,South,169,0.0,1.0,94,0.00,,---,0.00,VWS V14.01,2013-03-28 12:08:00,
2013-03-28 07:13:00,34.3,32.8,30.25,South,169,0.0,1.0,94,0.00,,---,0.00,VWS V14.01,2013-03-28 12:13:00,
2013-03-28 07:15:00,34.3,32.8,30.26,South,169,0.0,1.0,94,0.00,,---,0.00,VWS V14.01,2013-03-28 12:15:00,
2013-03-28 07:18:00,34.3,32.8,30.26,South,169,0.0,0.0,94,0.00,,---,0.00,VWS V14.01,2013-03-28 12:18:00,
2013-03-28 07:24:00,34.4,32.9,30.26,South,169,0.0,0.0,94,0.00,,---,0.00,VWS V14.01,2013-03-28 12:24:00,
2013-03-28 07:29:00,34.6,33.0,30.26,South,169,0.0,0.0,94,0.00,,---,0.00,VWS V14.01,2013-03-28 12:29:00,
2013-03-28 07:30:00,34.6,33.0,30.27,South,169,0.0,0.0,94,0.00,,---,0.00,VWS V14.01,2013-03-28 12:30:00,
2013-03-28 07:34:00,34.7,33.2,30.27,South,169,0.0,0.0,94,0.00,,---,0.00,VWS V14.01,2013-03-28 12:34:00,
2013-03-28 07:39:00,34.9,33.6,30.27,South,169,0.0,0.0,95,0.00,,---,0.00,VWS V14.01,2013-03-28 12:39:00,
2013-03-28 07:44:00,35.0,33.7,30.27,South,169,0.0,0.0,95,0.00,,---,0.00,VWS V14.01,2013-03-28 12:44:00,
2013-03-28 07:45:00,35.0,33.7,30.27,South,169,0.0,0.0,95,0.00,,---,0.00,VWS V14.01,2013-03-28 12:45:00,
2013-03-28 07:49:00,35.0,33.7,30.27,South,169,0.0,0.0,95,0.00,,---,0.00,VWS V14.01,2013-03-28 12:49:00,
2013-03-28 07:54:00,35.3,34.0,30.27,South,169,0.0,0.0,95,0.00,,---,0.00,VWS V14.01,2013-03-28 12:54:00,
2013-03-28 07:59:00,35.3,34.0,30.27,South,169,0.0,0.0,95,0.00,,---,0.00,VWS V14.01,2013-03-28 12:59:00,
2013-03-28 08:00:00,35.5,34.2,30.27,South,169,0.0,0.0,95,0.00,,---,0.00,VWS V14.01,2013-03-28 13:00:00,
2013-03-28 08:04:00,35.8,34.5,30.27,South,169,0.0,0.0,95,0.00,,---,0.00,VWS V14.01,2013-03-28 13:04:00,
2013-03-28 08:09:00,36.2,34.9,30.27,South,169,0.0,0.0,95,0.00,,---,0.00,VWS V14.01,2013-03-28 13:09:00,
2013-03-28 08:14:00,36.9,35.6,30.28,South,169,0.0,0.0,95,0.00,,---,0.00,VWS V14.01,2013-03-28 13:14:00,
2013-03-28 08:15:00,37.0,35.7,30.28,South,169,0.0,0.0,95,0.00,,---,0.00,VWS V14.01,2013-03-28 13:15:00,
2013-03-28 08:19:00,37.6,36.6,30.28,South,169,0.0,0.0,96,0.00,,---,0.00,VWS V14.01,2013-03-28 13:19:00,
2013-03-28 08:24:00,38.5,37.5,30.28,South,169,0.0,0.0,96,0.00,,---,0.00,VWS V14.01,2013-03-28 13:24:00,
2013-03-28 08:29:00,39.5,38.5,30.28,South,169,0.0,0.0,96,0.00,,---,0.00,VWS V14.01,2013-03-28 13:29:00,
2013-03-28 08:30:00,39.5,38.5,30.28,South,169,0.0,0.0,96,0.00,,---,0.00,VWS V14.01,2013-03-28 13:30:00,
2013-03-28 08:34:00,40.6,39.5,30.28,South,169,0.0,0.0,96,0.00,,---,0.00,VWS V14.01,2013-03-28 13:34:00,
2013-03-28 08:39:00,41.3,40.2,30.28,South,169,0.0,0.0,96,0.00,,---,0.00,VWS V14.01,2013-03-28 13:39:00,
2013-03-28 08:45:00,42.1,41.0,30.28,South,169,0.0,0.0,96,0.00,,---,0.00,VWS V14.01,2013-03-28 13:45:00,
2013-03-28 08:50:00,42.9,41.8,30.28,South,169,2.0,2.0,96,0.00,,---,0.00,VWS V14.01,2013-03-28 13:50:00,
2013-03-28 08:55:00,43.9,42.8,30.28,South,169,0.0,2.0,96,0.00,,---,0.00,VWS V14.01,2013-03-28 13:55:00,
2013-03-28 09:00:00,44.9,43.8,30.29,SSE,164,0.0,2.0,96,0.00,,---,0.00,VWS V14.01,2013-03-28 14:00:00,
2013-03-28 09:05:00,46.1,45.0,30.29,SSE,163,0.0,0.0,96,0.00,,---,0.00,VWS V14.01,2013-03-28 14:05:00,
2013-03-28 09:10:00,47.0,45.7,30.29,SSE,163,0.0,0.0,95,0.00,,---,0.00,VWS V14.01,2013-03-28 14:10:00,
2013-03-28 09:15:00,48.2,45.1,30.29,SSE,153,0.0,0.0,89,0.00,,---,0.00,VWS V14.01,2013-03-28 14:15:00,
2013-03-28 09:20:00,49.5,44.6,30.29,SSE,153,0.0,0.0,83,0.00,,---,0.00,VWS V14.01,2013-03-28 14:20:00,
2013-03-28 09:25:00,50.5,44.2,30.29,SSE,153,0.0,0.0,79,0.00,,---,0.00,VWS V14.01,2013-03-28 14:25:00,
2013-03-28 09:30:00,51.9,45.3,30.29,SSE,153,0.0,0.0,78,0.00,,---,0.00,VWS V14.01,2013-03-28 14:30:00,
2013-03-28 09:35:00,52.8,44.8,30.29,SSE,153,0.0,0.0,74,0.00,,---,0.00,VWS V14.01,2013-03-28 14:35:00,
2013-03-28 09:40:00,53.5,44.0,30.29,ESE,123,0.0,2.0,70,0.00,,---,0.00,VWS V14.01,2013-03-28 14:40:00,
2013-03-28 09:45:00,54.2,41.1,30.29,ESE,123,3.0,3.0,61,0.00,,---,0.00,VWS V14.01,2013-03-28 14:45:00,
2013-03-28 09:50:00,54.7,41.1,30.29,ESE,123,0.0,3.0,60,0.00,,---,0.00,VWS V14.01,2013-03-28 14:50:00,
2013-03-28 09:55:00,55.4,42.2,30.29,NNE,25,0.0,4.0,61,0.00,,---,0.00,VWS V14.01,2013-03-28 14:55:00,
2013-03-28 10:00:00,56.0,42.3,30.30,NNE,25,0.0,0.0,60,0.00,,---,0.00,VWS V14.01,2013-03-28 15:00:00,
2013-03-28 10:05:00,56.6,42.5,30.30,North,5,0.0,0.0,59,0.00,,---,0.00,VWS V14.01,2013-03-28 15:05:00,
2013-03-28 10:11:00,57.3,41.3,30.30,North,5,0.0,0.0,55,0.00,,---,0.00,VWS V14.01,2013-03-28 15:11:00,
2013-03-28 10:15:00,57.6,40.6,30.30,North,5,0.0,0.0,53,0.00,,---,0.00,VWS V14.01,2013-03-28 15:15:00,
2013-03-28 10:16:00,57.6,40.6,30.30,North,5,0.0,0.0,53,0.00,,---,0.00,VWS V14.01,2013-03-28 15:16:00,
2013-03-28 10:21:00,58.0,41.0,30.30,North,5,0.0,0.0,53,0.00,,---,0.00,VWS V14.01,2013-03-28 15:21:00,
2013-03-28 10:26:00,58.9,40.8,30.30,North,5,0.0,1.0,51,0.00,,---,0.00,VWS V14.01,2013-03-28 15:26:00,
2013-03-28 10:30:00,59.5,40.3,30.30,ESE,120,0.0,2.0,49,0.00,,---,0.00,VWS V14.01,2013-03-28 15:30:00,
2013-03-28 10:31:00,59.6,40.4,30.30,ESE,105,0.0,4.0,49,0.00,,---,0.00,VWS V14.01,2013-03-28 15:31:00,
2013-03-28 10:36:00,59.6,40.4,30.30,East,98,0.0,4.0,49,0.00,,---,0.00,VWS V14.01,2013-03-28 15:36:00,
2013-03-28 10:42:00,59.8,38.4,30.30,South,186,0.0,4.0,45,0.00,,---,0.00,VWS V14.01,2013-03-28 15:42:00,
2013-03-28 10:45:00,60.1,40.4,30.30,SSW,198,0.0,4.0,48,0.00,,---,0.00,VWS V14.01,2013-03-28 15:45:00,
2013-03-28 10:47:00,60.2,39.9,30.30,South,172,0.0,0.0,47,0.00,,---,0.00,VWS V14.01,2013-03-28 15:47:00,
2013-03-28 10:52:00,60.9,41.1,30.30,East,86,0.0,6.0,48,0.00,,---,0.00,VWS V14.01,2013-03-28 15:52:00,
2013-03-28 10:57:00,60.5,40.2,30.30,NE,34,0.0,6.0,47,0.00,,---,0.00,VWS V14.01,2013-03-28 15:57:00,
2013-03-28 11:00:00,60.7,41.5,30.30,NE,55,3.0,6.0,49,0.00,,---,0.00,VWS V14.01,2013-03-28 16:00:00,
2013-03-28 11:02:00,61.0,40.1,30.30,ENE,78,0.0,3.0,46,0.00,,---,0.00,VWS V14.01,2013-03-28 16:02:00,
2013-03-28 11:07:00,61.3,38.6,30.30,South,186,0.0,3.0,43,0.00,,---,0.00,VWS V14.01,2013-03-28 16:07:00,
2013-03-28 11:12:00,61.8,37.9,30.30,SE,138,0.0,3.0,41,0.00,,---,0.00,VWS V14.01,2013-03-28 16:12:00,
2013-03-28 11:15:00,62.1,36.2,30.30,East,90,2.0,4.0,38,0.00,,---,0.00,VWS V14.01,2013-03-28 16:15:00,
2013-03-28 11:17:00,62.3,37.0,30.30,East,87,2.0,4.0,39,0.00,,---,0.00,VWS V14.01,2013-03-28 16:17:00,
2013-03-28 11:22:00,62.3,35.7,30.30,South,184,0.0,4.0,37,0.00,,---,0.00,VWS V14.01,2013-03-28 16:22:00,
2013-03-28 11:28:00,62.4,37.1,30.30,WSW,238,4.0,7.0,39,0.00,,---,0.00,VWS V14.01,2013-03-28 16:28:00,
2013-03-28 11:30:00,62.1,36.2,30.30,WSW,248,2.0,7.0,38,0.00,,---,0.00,VWS V14.01,2013-03-28 16:30:00,
2013-03-28 11:33:00,62.0,37.4,30.30,SSW,205,4.0,4.0,40,0.00,,---,0.00,VWS V14.01,2013-03-28 16:33:00,
2013-03-28 11:38:00,61.8,35.3,30.30,SW,218,5.0,6.0,37,0.00,,---,0.00,VWS V14.01,2013-03-28 16:38:00,
2013-03-28 11:43:00,62.0,38.7,30.30,West,263,5.0,8.0,42,0.00,,---,0.00,VWS V14.01,2013-03-28 16:43:00,
2013-03-28 11:45:00,62.0,36.1,30.29,NW,305,0.0,8.0,38,0.00,,---,0.00,VWS V14.01,2013-03-28 16:45:00,
2013-03-28 11:48:00,62.3,39.5,30.29,NW,305,0.0,1.0,43,0.00,,---,0.00,VWS V14.01,2013-03-28 16:48:00,
2013-03-28 11:53:00,63.2,36.5,30.29,South,189,2.0,4.0,37,0.00,,---,0.00,VWS V14.01,2013-03-28 16:53:00,
2013-03-28 11:58:00,63.1,35.0,30.29,SSW,203,0.0,5.0,35,0.00,,---,0.00,VWS V14.01,2013-03-28 16:58:00,
2013-03-28 12:00:00,63.1,34.3,30.28,SE,128,0.0,5.0,34,0.00,,---,0.00,VWS V14.01,2013-03-28 17:00:00,
2013-03-28 12:03:00,63.4,36.0,30.28,SW,220,0.0,1.0,36,0.00,,---,0.00,VWS V14.01,2013-03-28 17:03:00,
2013-03-28 12:08:00,63.5,38.1,30.28,NW,304,0.0,1.0,39,0.00,,---,0.00,VWS V14.01,2013-03-28 17:08:00,
2013-03-28 12:13:00,64.0,37.2,30.28,SW,230,0.0,3.0,37,0.00,,---,0.00,VWS V14.01,2013-03-28 17:13:00,
2013-03-28 12:15:00,64.5,40.9,30.28,East,82,0.0,3.0,42,0.00,,---,0.00,VWS V14.01,2013-03-28 17:15:00,
2013-03-28 12:18:00,64.8,35.0,30.28,SE,130,2.0,4.0,33,0.00,,---,0.00,VWS V14.01,2013-03-28 17:18:00,
2013-03-28 12:23:00,64.7,33.4,30.28,ESE,118,0.0,6.0,31,0.00,,---,0.00,VWS V14.01,2013-03-28 17:23:00,
2013-03-28 12:28:00,64.3,34.6,30.28,ENE,61,2.0,6.0,33,0.00,,---,0.00,VWS V14.01,2013-03-28 17:28:00,
2013-03-28 12:30:00,64.3,34.6,30.28,East,90,1.0,6.0,33,0.00,,---,0.00,VWS V14.01,2013-03-28 17:30:00,
2013-03-28 12:33:00,64.3,33.8,30.28,SSE,152,0.0,4.0,32,0.00,,---,0.00,VWS V14.01,2013-03-28 17:33:00,
2013-03-28 12:38:00,65.2,39.6,30.28,ENE,69,0.0,7.0,39,0.00,,---,0.00,VWS V14.01,2013-03-28 17:38:00,
2013-03-28 12:43:00,65.5,35.7,30.28,North,360,2.0,7.0,33,0.00,,---,0.00,VWS V14.01,2013-03-28 17:43:00,
2013-03-28 12:45:00,65.6,35.0,30.27,North,355,3.0,7.0,32,0.00,,---,0.00,VWS V14.01,2013-03-28 17:45:00,
2013-03-28 12:48:00,66.0,36.1,30.27,North,360,2.0,4.0,33,0.00,,---,0.00,VWS V14.01,2013-03-28 17:48:00,
2013-03-28 12:53:00,65.8,33.5,30.27,SSW,193,6.0,6.0,30,0.00,,---,0.00,VWS V14.01,2013-03-28 17:53:00,
2013-03-28 12:58:00,65.6,35.0,30.27,ESE,111,0.0,7.0,32,0.00,,---,0.00,VWS V14.01,2013-03-28 17:58:00,
2013-03-28 13:00:00,65.8,33.5,30.26,SSE,164,0.0,7.0,30,0.00,,---,0.00,VWS V14.01,2013-03-28 18:00:00,
2013-03-28 13:03:00,65.8,35.9,30.26,SW,221,0.0,0.0,33,0.00,,---,0.00,VWS V14.01,2013-03-28 18:03:00,
2013-03-28 13:08:00,66.3,34.8,30.26,East,96,3.0,5.0,31,0.00,,---,0.00,VWS V14.01,2013-03-28 18:08:00,
2013-03-28 13:14:00,66.4,34.9,30.26,East,94,0.0,5.0,31,0.00,,---,0.00,VWS V14.01,2013-03-28 18:14:00,
2013-03-28 13:15:00,66.4,34.0,30.25,East,94,0.0,5.0,30,0.00,,---,0.00,VWS V14.01,2013-03-28 18:15:00,
2013-03-28 13:19:00,66.3,33.1,30.25,ESE,120,0.0,5.0,29,0.00,,---,0.00,VWS V14.01,2013-03-28 18:19:00,
2013-03-28 13:24:00,66.6,35.8,30.25,ENE,67,0.0,5.0,32,0.00,,---,0.00,VWS V14.01,2013-03-28 18:24:00,
2013-03-28 13:29:00,66.9,35.3,30.25,ENE,69,0.0,6.0,31,0.00,,---,0.00,VWS V14.01,2013-03-28 18:29:00,
2013-03-28 13:30:00,67.1,35.5,30.25,ENE,69,0.0,6.0,31,0.00,,---,0.00,VWS V14.01,2013-03-28 18:30:00,
2013-03-28 13:34:00,67.3,35.7,30.25,East,94,1.0,4.0,31,0.00,,---,0.00,VWS V14.01,2013-03-28 18:34:00,
2013-03-28 13:39:00,67.8,36.1,30.25,ENE,65,0.0,4.0,31,0.00,,---,0.00,VWS V14.01,2013-03-28 18:39:00,
2013-03-28 13:44:00,67.9,38.5,30.24,North,355,0.0,4.0,34,0.00,,---,0.00,VWS V14.01,2013-03-28 18:44:00,
2013-03-28 13:45:00,67.9,34.5,30.24,WNW,282,4.0,4.0,29,0.00,,---,0.00,VWS V14.01,2013-03-28 18:45:00,
2013-03-28 13:49:00,67.9,33.6,30.24,West,269,0.0,4.0,28,0.00,,---,0.00,VWS V14.01,2013-03-28 18:49:00,
2013-03-28 13:54:00,68.1,38.7,30.24,East,92,2.0,4.0,34,0.00,,---,0.00,VWS V14.01,2013-03-28 18:54:00,
2013-03-28 13:59:00,68.4,34.0,30.23,NNE,24,4.0,5.0,28,0.00,,---,0.00,VWS V14.01,2013-03-28 18:59:00,
2013-03-28 14:00:00,68.4,34.0,30.23,NNE,19,4.0,5.0,28,0.00,,---,0.00,VWS V14.01,2013-03-28 19:00:00,
2013-03-28 14:04:00,68.6,36.8,30.23,NNE,26,0.0,6.0,31,0.00,,---,0.00,VWS V14.01,2013-03-28 19:04:00,
2013-03-28 14:10:00,68.4,35.8,30.23,SW,219,3.0,6.0,30,0.00,,---,0.00,VWS V14.01,2013-03-28 19:10:00,
2013-03-28 14:15:00,68.4,34.9,30.22,WSW,250,4.0,7.0,29,0.00,,---,0.00,VWS V14.01,2013-03-28 19:15:00,
2013-03-28 14:20:00,68.4,34.0,30.22,West,263,3.0,9.0,28,0.00,,---,0.00,VWS V14.01,2013-03-28 19:20:00,
2013-03-28 14:25:00,68.4,35.8,30.22,SW,226,0.0,9.0,30,0.00,,---,0.00,VWS V14.01,2013-03-28 19:25:00,
2013-03-28 14:30:00,68.8,33.5,30.21,West,269,3.0,9.0,27,0.00,,---,0.00,VWS V14.01,2013-03-28 19:30:00,
2013-03-28 14:35:00,68.8,34.4,30.21,South,186,0.0,6.0,28,0.00,,---,0.00,VWS V14.01,2013-03-28 19:35:00,
2013-03-28 14:40:00,68.9,37.8,30.21,SSE,150,0.0,7.0,32,0.00,,---,0.00,VWS V14.01,2013-03-28 19:40:00,
2013-03-28 14:45:00,69.3,34.8,30.20,South,179,0.0,7.0,28,0.00,,---,0.00,VWS V14.01,2013-03-28 19:45:00,
2013-03-28 14:50:00,69.4,34.9,30.20,SSW,192,0.0,6.0,28,0.00,,---,0.00,VWS V14.01,2013-03-28 19:50:00,
2013-03-28 14:55:00,69.4,34.0,30.20,SSW,213,3.0,9.0,27,0.00,,---,0.00,VWS V14.01,2013-03-28 19:55:00,
2013-03-28 15:00:00,69.8,35.3,30.20,WNW,301,3.0,3.0,28,0.00,,---,0.00,VWS V14.01,2013-03-28 20:00:00,
2013-03-28 15:05:00,69.4,37.5,30.20,South,169,0.0,4.0,31,0.00,,---,0.00,VWS V14.01,2013-03-28 20:05:00,
2013-03-28 15:10:00,69.6,35.1,30.20,SSW,197,0.0,5.0,28,0.00,,---,0.00,VWS V14.01,2013-03-28 20:10:00,
2013-03-28 15:15:00,69.6,35.1,30.19,SSW,198,6.0,7.0,28,0.00,,---,0.00,VWS V14.01,2013-03-28 20:15:00,
2013-03-28 15:20:00,69.4,34.0,30.19,SSW,202,4.0,7.0,27,0.00,,---,0.00,VWS V14.01,2013-03-28 20:20:00,
2013-03-28 15:25:00,69.4,34.9,30.19,SW,223,0.0,7.0,28,0.00,,---,0.00,VWS V14.01,2013-03-28 20:25:00,
2013-03-28 15:30:00,69.4,34.9,30.19,West,261,4.0,7.0,28,0.00,,---,0.00,VWS V14.01,2013-03-28 20:30:00,
2013-03-28 15:31:00,69.4,34.0,30.19,West,262,2.0,5.0,27,0.00,,---,0.00,VWS V14.01,2013-03-28 20:31:00,
2013-03-28 15:36:00,69.6,35.1,30.19,SW,227,0.0,6.0,28,0.00,,---,0.00,VWS V14.01,2013-03-28 20:36:00,
2013-03-28 15:41:00,70.1,36.4,30.19,SW,227,0.0,6.0,29,0.00,,---,0.00,VWS V14.01,2013-03-28 20:41:00,
2013-03-28 15:45:00,70.3,35.7,30.18,South,176,0.0,8.0,28,0.00,,---,0.00,VWS V14.01,2013-03-28 20:45:00,
2013-03-28 15:46:00,70.4,35.8,30.18,SSE,165,0.0,1.0,28,0.00,,---,0.00,VWS V14.01,2013-03-28 20:46:00,
2013-03-28 15:51:00,69.9,35.3,30.18,SW,236,0.0,6.0,28,0.00,,---,0.00,VWS V14.01,2013-03-28 20:51:00,
2013-03-28 15:56:00,70.3,34.8,30.18,SSW,201,0.0,6.0,27,0.00,,---,0.00,VWS V14.01,2013-03-28 20:56:00,
2013-03-28 16:00:00,70.3,35.7,30.17,SW,225,0.0,6.0,28,0.00,,---,0.00,VWS V14.01,2013-03-28 21:00:00,
2013-03-28 16:01:00,70.4,35.8,30.17,SW,225,0.0,0.0,28,0.00,,---,0.00,VWS V14.01,2013-03-28 21:01:00,
2013-03-28 16:06:00,70.9,37.1,30.17,SW,226,0.0,4.0,29,0.00,,---,0.00,VWS V14.01,2013-03-28 21:06:00,
2013-03-28 16:11:00,70.8,36.1,30.17,SSE,165,0.0,4.0,28,0.00,,---,0.00,VWS V14.01,2013-03-28 21:11:00,
2013-03-28 16:15:00,70.6,35.9,30.17,NE,55,0.0,4.0,28,0.00,,---,0.00,VWS V14.01,2013-03-28 21:15:00,
2013-03-28 16:16:00,70.6,35.9,30.17,NE,56,0.0,0.0,28,0.00,,---,0.00,VWS V14.01,2013-03-28 21:16:00,
2013-03-28 16:21:00,70.9,36.2,30.17,NE,56,0.0,0.0,28,0.00,,---,0.00,VWS V14.01,2013-03-28 21:21:00,
2013-03-28 16:27:00,71.5,37.6,30.17,SW,229,0.0,4.0,29,0.00,,---,0.00,VWS V14.01,2013-03-28 21:27:00,
2013-03-28 16:30:00,71.8,37.0,30.16,SW,229,0.0,4.0,28,0.00,,---,0.00,VWS V14.01,2013-03-28 21:30:00,
2013-03-28 16:32:00,71.8,37.0,30.16,SSW,207,1.0,2.0,28,0.00,,---,0.00,VWS V14.01,2013-03-28 21:32:00,
2013-03-28 16:37:00,70.9,36.2,30.16,West,263,3.0,7.0,28,0.00,,---,0.00,VWS V14.01,2013-03-28 21:37:00,
2013-03-28 16:42:00,70.8,39.5,30.16,West,279,0.0,7.0,32,0.00,,---,0.00,VWS V14.01,2013-03-28 21:42:00,
2013-03-28 16:45:00,71.1,39.0,30.16,SSW,208,3.0,7.0,31,0.00,,---,0.00,VWS V14.01,2013-03-28 21:45:00,
2013-03-28 16:47:00,71.3,35.6,30.16,South,178,0.0,6.0,27,0.00,,---,0.00,VWS V14.01,2013-03-28 21:47:00,
2013-03-28 16:52:00,70.9,36.2,30.16,South,179,0.0,6.0,28,0.00,,---,0.00,VWS V14.01,2013-03-28 21:52:00,
2013-03-28 16:57:00,70.8,36.1,30.16,SSW,213,0.0,6.0,28,0.00,,---,0.00,VWS V14.01,2013-03-28 21:57:00,
2013-03-28 17:00:00,70.9,37.1,30.16,SSW,213,0.0,6.0,29,0.00,,---,0.00,VWS V14.01,2013-03-28 22:00:00,
2013-03-28 17:02:00,71.1,36.4,30.16,SSW,213,0.0,0.0,28,0.00,,---,0.00,VWS V14.01,2013-03-28 22:02:00,
2013-03-28 17:07:00,71.3,36.5,30.16,ESE,117,0.0,1.0,28,0.00,,---,0.00,VWS V14.01,2013-03-28 22:07:00,
2013-03-28 17:12:00,71.1,39.0,30.16,SE,128,0.0,1.0,31,0.00,,---,0.00,VWS V14.01,2013-03-28 22:12:00,
2013-03-28 17:15:00,71.3,36.5,30.16,SE,137,0.0,1.0,28,0.00,,---,0.00,VWS V14.01,2013-03-28 22:15:00,
2013-03-28 17:17:00,71.6,35.9,30.16,SSW,196,0.0,2.0,27,0.00,,---,0.00,VWS V14.01,2013-03-28 22:17:00,
2013-03-28 17:22:00,71.1,38.1,30.16,SW,226,0.0,4.0,30,0.00,,---,0.00,VWS V14.01,2013-03-28 22:22:00,
2013-03-28 17:27:00,71.3,36.5,30.16,SW,215,4.0,4.0,28,0.00,,---,0.00,VWS V14.01,2013-03-28 22:27:00,
2013-03-28 17:30:00,71.3,37.4,30.16,SW,215,0.0,4.0,29,0.00,,---,0.00,VWS V14.01,2013-03-28 22:30:00,
2013-03-28 17:32:00,71.5,36.7,30.16,SW,215,0.0,0.0,28,0.00,,---,0.00,VWS V14.01,2013-03-28 22:32:00,
2013-03-28 17:37:00,71.5,36.7,30.16,SSW,207,0.0,2.0,28,0.00,,---,0.00,VWS V14.01,2013-03-28 22:37:00,
2013-03-28 17:43:00,70.9,36.2,30.16,SSW,198,2.0,5.0,28,0.00,,---,0.00,VWS V14.01,2013-03-28 22:43:00,
2013-03-28 17:45:00,70.6,35.9,30.16,SW,221,0.0,5.0,28,0.00,,---,0.00,VWS V14.01,2013-03-28 22:45:00,
2013-03-28 17:48:00,70.6,36.8,30.16,SSW,210,0.0,1.0,29,0.00,,---,0.00,VWS V14.01,2013-03-28 22:48:00,
2013-03-28 17:53:00,70.8,37.9,30.16,SSW,210,0.0,1.0,30,0.00,,---,0.00,VWS V14.01,2013-03-28 22:53:00,
2013-03-28 17:58:00,70.9,37.1,30.16,SW,215,0.0,4.0,29,0.00,,---,0.00,VWS V14.01,2013-03-28 22:58:00,
2013-03-28 18:00:00,70.8,37.0,30.16,SW,214,0.0,4.0,29,0.00,,---,0.00,VWS V14.01,2013-03-28 23:00:00,
2013-03-28 18:03:00,70.3,35.7,30.16,South,180,0.0,5.0,28,0.00,,---,0.00,VWS V14.01,2013-03-28 23:03:00,
2013-03-28 18:08:00,69.9,37.1,30.16,South,180,0.0,5.0,30,0.00,,---,0.00,VWS V14.01,2013-03-28 23:08:00,
2013-03-28 18:13:00,69.8,37.8,30.16,South,181,0.0,5.0,31,0.00,,---,0.00,VWS V14.01,2013-03-28 23:13:00,
2013-03-28 18:15:00,69.8,37.8,30.16,South,181,0.0,5.0,31,0.00,,---,0.00,VWS V14.01,2013-03-28 23:15:00,
2013-03-28 18:18:00,69.8,37.0,30.16,South,180,0.0,1.0,30,0.00,,---,0.00,VWS V14.01,2013-03-28 23:18:00,
2013-03-28 18:23:00,69.9,39.5,30.16,SSW,205,0.0,1.0,33,0.00,,---,0.00,VWS V14.01,2013-03-28 23:23:00,
2013-03-28 18:28:00,69.8,37.8,30.16,West,265,0.0,4.0,31,0.00,,---,0.00,VWS V14.01,2013-03-28 23:28:00,
2013-03-28 18:30:00,69.6,37.7,30.17,West,265,0.0,4.0,31,0.00,,---,0.00,VWS V14.01,2013-03-28 23:30:00,
2013-03-28 18:33:00,69.6,38.5,30.17,West,265,0.0,0.0,32,0.00,,---,0.00,VWS V14.01,2013-03-28 23:33:00,
2013-03-28 18:38:00,69.3,39.8,30.17,SSW,202,0.0,1.0,34,0.00,,---,0.00,VWS V14.01,2013-03-28 23:38:00,
2013-03-28 18:43:00,68.8,39.3,30.17,West,281,0.0,1.0,34,0.00,,---,0.00,VWS V14.01,2013-03-28 23:43:00,
2013-03-28 18:45:00,68.6,39.1,30.17,West,281,0.0,1.0,34,0.00,,---,0.00,VWS V14.01,2013-03-28 23:45:00,
2013-03-28 18:48:00,68.3,39.6,30.17,West,281,0.0,0.0,35,0.00,,---,0.00,VWS V14.01,2013-03-28 23:48:00,
2013-03-28 18:53:00,67.8,40.6,30.17,West,268,0.0,0.0,37,0.00,,---,0.00,VWS V14.01,2013-03-28 23:53:00,
2013-03-28 18:59:00,67.3,39.5,30.17,SW,233,0.0,2.0,36,0.00,,---,0.00,VWS V14.01,2013-03-28 23:59:00,
2013-03-28 19:00:00,67.1,39.3,30.17,SW,233,0.0,2.0,36,0.00,,---,0.00,VWS V14.01,2013-03-29 00:00:00,
2013-03-28 19:04:00,66.8,39.7,30.17,WSW,240,0.0,6.0,37,0.00,,---,0.00,VWS V14.01,2013-03-29 00:04:00,
2013-03-28 19:09:00,66.3,39.3,30.17,WSW,240,0.0,6.0,37,0.00,,---,0.00,VWS V14.01,2013-03-29 00:09:00,
2013-03-28 19:14:00,65.8,39.5,30.17,WSW,240,0.0,6.0,38,0.00,,---,0.00,VWS V14.01,2013-03-29 00:14:00,
2013-03-28 19:15:00,65.8,40.2,30.17,WSW,240,0.0,6.0,39,0.00,,---,0.00,VWS V14.01,2013-03-29 00:15:00,
2013-03-28 19:19:00,65.5,39.2,30.17,WSW,240,0.0,0.0,38,0.00,,---,0.00,VWS V14.01,2013-03-29 00:19:00,
2013-03-28 19:24:00,64.7,42.3,30.17,WSW,240,0.0,0.0,44,0.00,,---,0.00,VWS V14.01,2013-03-29 00:24:00,
2013-03-28 19:29:00,63.7,43.1,30.17,WSW,240,0.0,0.0,47,0.00,,---,0.00,VWS V14.01,2013-03-29 00:29:00,
2013-03-28 19:30:00,63.5,43.5,30.17,WSW,240,0.0,0.0,48,0.00,,---,0.00,VWS V14.01,2013-03-29 00:30:00,
2013-03-28 19:34:00,62.9,43.5,30.17,WSW,240,0.0,0.0,49,0.00,,---,0.00,VWS V14.01,2013-03-29 00:34:00,
2013-03-28 19:39:00,61.5,44.7,30.17,SSE,154,0.0,0.0,54,0.00,,---,0.00,VWS V14.01,2013-03-29 00:39:00,
2013-03-28 19:44:00,60.5,44.7,30.19,SSE,154,0.0,0.0,56,0.00,,---,0.00,VWS V14.01,2013-03-29 00:44:00,
2013-03-28 19:45:00,60.4,44.2,30.19,SSE,154,0.0,0.0,55,0.00,,---,0.00,VWS V14.01,2013-03-29 00:45:00,
2013-03-28 19:49:00,59.6,43.9,30.19,SSE,154,0.0,0.0,56,0.00,,---,0.00,VWS V14.01,2013-03-29 00:49:00,
2013-03-28 19:54:00,59.2,44.0,30.19,SSE,154,0.0,0.0,57,0.00,,---,0.00,VWS V14.01,2013-03-29 00:54:00,
2013-03-28 19:59:00,58.9,44.2,30.19,SSE,154,0.0,0.0,58,0.00,,---,0.00,VWS V14.01,2013-03-29 00:59:00,
2013-03-28 20:00:00,58.7,44.0,30.19,SSE,154,0.0,0.0,58,0.00,,---,0.00,VWS V14.01,2013-03-29 01:00:00,
2013-03-28 20:04:00,58.6,44.3,30.19,SSE,154,0.0,0.0,59,0.00,,---,0.00,VWS V14.01,2013-03-29 01:04:00,
2013-03-28 20:09:00,58.3,44.5,30.19,SSE,154,0.0,0.0,60,0.00,,---,0.00,VWS V14.01,2013-03-29 01:09:00,
2013-03-28 20:14:00,58.0,44.2,30.19,SSE,154,0.0,0.0,60,0.00,,---,0.00,VWS V14.01,2013-03-29 01:14:00,
2013-03-28 20:15:00,57.8,44.5,30.19,SSE,154,0.0,0.0,61,0.00,,---,0.00,VWS V14.01,2013-03-29 01:15:00,
2013-03-28 20:20:00,57.6,44.3,30.19,SSE,154,0.0,0.0,61,0.00,,---,0.00,VWS V14.01,2013-03-29 01:20:00,
2013-03-28 20:25:00,57.3,44.4,30.19,SSE,154,0.0,0.0,62,0.00,,---,0.00,VWS V14.01,2013-03-29 01:25:00,
2013-03-28 20:30:00,57.0,43.7,30.19,SSE,154,0.0,0.0,61,0.00,,---,0.00,VWS V14.01,2013-03-29 01:30:00,
2013-03-28 20:35:00,56.6,42.9,30.19,SSE,154,0.0,0.0,60,0.00,,---,0.00,VWS V14.01,2013-03-29 01:35:00,
2013-03-28 20:40:00,56.3,43.5,30.19,SSE,154,0.0,0.0,62,0.00,,---,0.00,VWS V14.01,2013-03-29 01:40:00,
2013-03-28 20:45:00,55.9,44.3,30.20,SSE,154,0.0,0.0,65,0.00,,---,0.00,VWS V14.01,2013-03-29 01:45:00,
2013-03-28 20:50:00,55.6,44.4,30.20,SSE,154,0.0,0.0,66,0.00,,---,0.00,VWS V14.01,2013-03-29 01:50:00,
2013-03-28 20:55:00,55.3,44.2,30.20,SSE,154,0.0,0.0,66,0.00,,---,0.00,VWS V14.01,2013-03-29 01:55:00,
2013-03-28 21:00:00,55.1,45.1,30.20,SSE,154,0.0,0.0,69,0.00,,---,0.00,VWS V14.01,2013-03-29 02:00:00,
2013-03-28 21:05:00,54.8,44.5,30.20,SSE,154,0.0,0.0,68,0.00,,---,0.00,VWS V14.01,2013-03-29 02:05:00,
2013-03-28 21:11:00,54.4,44.1,30.20,SSE,154,0.0,0.0,68,0.00,,---,0.00,VWS V14.01,2013-03-29 02:11:00,
2013-03-28 21:15:00,54.2,45.4,30.20,SSE,154,0.0,0.0,72,0.00,,---,0.00,VWS V14.01,2013-03-29 02:15:00,
2013-03-28 21:21:00,53.8,44.6,30.20,SSE,154,0.0,0.0,71,0.00,,---,0.00,VWS V14.01,2013-03-29 02:21:00,
2013-03-28 21:26:00,53.5,45.1,30.20,SSE,154,0.0,0.0,73,0.00,,---,0.00,VWS V14.01,2013-03-29 02:26:00,
2013-03-28 21:30:00,53.2,45.1,30.20,SSE,154,0.0,0.0,74,0.00,,---,0.00,VWS V14.01,2013-03-29 02:30:00,
2013-03-28 21:31:00,53.2,45.1,30.20,SSE,154,0.0,0.0,74,0.00,,---,0.00,VWS V14.01,2013-03-29 02:31:00,
2013-03-28 21:36:00,52.9,44.8,30.20,SSE,154,0.0,0.0,74,0.00,,---,0.00,VWS V14.01,2013-03-29 02:36:00,
2013-03-28 21:41:00,52.6,45.3,30.20,SSE,154,0.0,0.0,76,0.00,,---,0.00,VWS V14.01,2013-03-29 02:41:00,
2013-03-28 21:45:00,52.3,45.0,30.21,SSE,154,0.0,0.0,76,0.00,,---,0.00,VWS V14.01,2013-03-29 02:45:00,
2013-03-28 21:46:00,52.3,45.0,30.21,SSE,154,0.0,0.0,76,0.00,,---,0.00,VWS V14.01,2013-03-29 02:46:00,
2013-03-28 21:51:00,52.0,44.7,30.21,SSE,154,0.0,0.0,76,0.00,,---,0.00,VWS V14.01,2013-03-29 02:51:00,
2013-03-28 21:56:00,51.9,44.6,30.21,SSE,154,0.0,0.0,76,0.00,,---,0.00,VWS V14.01,2013-03-29 02:56:00,
2013-03-28 22:00:00,51.7,44.7,30.22,SSE,157,0.0,1.0,77,0.00,,---,0.00,VWS V14.01,2013-03-29 03:00:00,
2013-03-28 22:01:00,51.7,44.4,30.22,SSE,161,0.0,3.0,76,0.00,,---,0.00,VWS V14.01,2013-03-29 03:01:00,
2013-03-28 22:07:00,51.9,44.2,30.22,SSE,161,0.0,3.0,75,0.00,,---,0.00,VWS V14.01,2013-03-29 03:07:00,
2013-03-28 22:12:00,51.9,44.2,30.22,SSE,161,0.0,3.0,75,0.00,,---,0.00,VWS V14.01,2013-03-29 03:12:00,
2013-03-28 22:15:00,51.9,44.6,30.22,SSE,161,0.0,3.0,76,0.00,,---,0.00,VWS V14.01,2013-03-29 03:15:00,
2013-03-28 22:17:00,51.9,44.2,30.22,SSE,161,0.0,0.0,75,0.00,,---,0.00,VWS V14.01,2013-03-29 03:17:00,
2013-03-28 22:22:00,51.7,44.0,30.22,SSE,161,0.0,1.0,75,0.00,,---,0.00,VWS V14.01,2013-03-29 03:22:00,
2013-03-28 22:27:00,51.7,43.7,30.22,SSE,161,0.0,1.0,74,0.00,,---,0.00,VWS V14.01,2013-03-29 03:27:00,
2013-03-28 22:30:00,51.7,43.7,30.23,SSE,161,0.0,1.0,74,0.00,,---,0.00,VWS V14.01,2013-03-29 03:30:00,
2013-03-28 22:32:00,51.7,44.0,30.23,SSE,161,0.0,0.0,75,0.00,,---,0.00,VWS V14.01,2013-03-29 03:32:00,
2013-03-28 22:37:00,51.6,43.6,30.23,SSE,161,0.0,0.0,74,0.00,,---,0.00,VWS V14.01,2013-03-29 03:37:00,
2013-03-28 22:42:00,51.4,44.1,30.23,SSE,161,0.0,0.0,76,0.00,,---,0.00,VWS V14.01,2013-03-29 03:42:00,
2013-03-28 22:45:00,51.4,44.1,30.23,SSE,161,0.0,0.0,76,0.00,,---,0.00,VWS V14.01,2013-03-29 03:45:00,
2013-03-28 22:47:00,51.4,44.4,30.23,SSE,161,0.0,0.0,77,0.00,,---,0.00,VWS V14.01,2013-03-29 03:47:00,
2013-03-28 22:52:00,51.4,44.4,30.23,SSE,161,0.0,0.0,77,0.00,,---,0.00,VWS V14.01,2013-03-29 03:52:00,
2013-03-28 22:58:00,51.3,44.3,30.23,SSE,161,0.0,0.0,77,0.00,,---,0.00,VWS V14.01,2013-03-29 03:58:00,
2013-03-28 23:00:00,51.1,44.2,30.23,SSE,161,0.0,0.0,77,0.00,,---,0.00,VWS V14.01,2013-03-29 04:00:00,
2013-03-28 23:05:00,51.0,44.0,30.23,SSE,161,0.0,0.0,77,0.00,,---,0.00,VWS V14.01,2013-03-29 04:05:00,
2013-03-28 23:10:00,51.0,44.7,30.23,SSE,161,0.0,0.0,79,0.00,,---,0.00,VWS V14.01,2013-03-29 04:10:00,
2013-03-28 23:15:00,50.8,44.9,30.23,SSE,161,0.0,0.0,80,0.00,,---,0.00,VWS V14.01,2013-03-29 04:15:00,
2013-03-28 23:20:00,50.7,44.4,30.23,SSE,161,0.0,0.0,79,0.00,,---,0.00,VWS V14.01,2013-03-29 04:20:00,
2013-03-28 23:25:00,50.4,44.1,30.23,SSE,161,0.0,0.0,79,0.00,,---,0.00,VWS V14.01,2013-03-29 04:25:00,
2013-03-28 23:30:00,50.2,44.0,30.23,SSE,161,0.0,0.0,79,0.00,,---,0.00,VWS V14.01,2013-03-29 04:30:00,
2013-03-28 23:35:00,49.9,43.7,30.23,SSE,161,0.0,0.0,79,0.00,,---,0.00,VWS V14.01,2013-03-29 04:35:00,
2013-03-28 23:40:00,49.8,43.9,30.23,SSE,161,0.0,0.0,80,0.00,,---,0.00,VWS V14.01,2013-03-29 04:40:00,
2013-03-28 23:45:00,49.5,43.9,30.23,SSE,161,0.0,0.0,81,0.00,,---,0.00,VWS V14.01,2013-03-29 04:45:00,
2013-03-28 23:50:00,49.5,44.2,30.23,SSE,161,0.0,0.0,82,0.00,,---,0.00,VWS V14.01,2013-03-29 04:50:00,
2013-03-28 23:56:00,49.2,44.0,30.23,SSE,161,0.0,0.0,82,0.00,,---,0.00,VWS V14.01,2013-03-29 04:56:00,